Enter the Airport ICAO Code

Search by Airport or City

Current Weather

ZGGG | Guangzhou Baiyun International Airport

Guangzhou, Guangdong, China

Last Update 12 Minutes Ago

Partly Cloudy Sky

Temperature of 29 ºC

Light Winds from South

Temperature

29 ºC

Dew Point Temperature

24 ºC

Relative Humidity

74.6 %

Wind Direction

South (190º, Without Significant Variations)

Wind Velocity

7 km/h (2 kt)

Gusts

None

Visibility

Greater than 10 Kilometers

Sea Level Pressure

1009 hPa (Hectopascals)

Layers of Clouds

30% to 60% of Sky Covered from 1524 mts (5000 ft) Above Ground Level.

METAR ZGGG 211330Z 19002MPS 9999 SCT050 29/24 Q1009 NOSIG

Weather Forecast

ZGGG | Guangzhou Baiyun International Airport

Guangzhou, Guangdong, China

Forecast valid for the next 22 Hours

From now on it is expected:

Mostly Cloudy Sky

Light to Moderate Winds from East

In 5 hours it is expected the begining of 5 hours with intermittent periods of:

Rain

In 16 hours it is expected the begining of 4 hours with intermittent periods of:

Thunderstorm with Rain

Maximum Temperature

35 ºC in 17 Hours

Minimum Temperature

26 ºC in 8 Hours

TAF ZGGG 210913Z 2112/2212 10003MPS 8000 BKN040 TX35/2207Z TN26/2122Z TEMPO 2119/2124 SHRA FEW030CB BKN040 TEMPO 2206/2210 2500 TSRA SCT030CB BKN040